createdAt,value
2023-07-25T00:00:52.272Z,16.906
2023-07-25T00:02:52.280Z,16.883
2023-07-25T00:04:52.299Z,16.867
2023-07-25T00:06:52.281Z,16.859
2023-07-25T00:08:52.283Z,16.844
2023-07-25T00:10:52.277Z,16.836
2023-07-25T00:12:52.277Z,16.82
2023-07-25T00:14:52.280Z,16.805
2023-07-25T00:16:52.317Z,16.781
2023-07-25T00:18:52.289Z,16.773
2023-07-25T00:20:52.307Z,16.758
2023-07-25T00:22:52.297Z,16.75
2023-07-25T00:24:52.319Z,16.734
2023-07-25T00:26:52.300Z,16.719
2023-07-25T00:28:52.297Z,16.711
2023-07-25T00:30:52.296Z,16.687
2023-07-25T00:32:52.345Z,16.687
2023-07-25T00:34:52.400Z,16.672
2023-07-25T00:36:52.338Z,16.656
2023-07-25T00:38:52.302Z,16.648
2023-07-25T00:40:52.308Z,16.633
2023-07-25T00:42:52.307Z,16.609
2023-07-25T00:44:52.318Z,16.586
2023-07-25T00:46:52.316Z,16.57
2023-07-25T00:48:52.315Z,16.547
2023-07-25T00:50:52.325Z,16.539
2023-07-25T00:52:52.340Z,16.508
2023-07-25T00:54:52.331Z,16.484
2023-07-25T00:56:52.321Z,16.477
2023-07-25T00:58:52.330Z,16.453
2023-07-25T01:00:52.333Z,16.422
2023-07-25T01:02:52.443Z,16.414
2023-07-25T01:04:52.346Z,16.391
2023-07-25T01:06:52.335Z,16.375
2023-07-25T01:08:52.363Z,16.367
2023-07-25T01:10:52.334Z,16.336
2023-07-25T01:12:52.344Z,16.328
2023-07-25T01:14:52.338Z,16.305
2023-07-25T01:16:52.341Z,16.289
2023-07-25T01:18:52.347Z,16.273
2023-07-25T01:20:52.341Z,16.266
2023-07-25T01:22:52.356Z,16.25
2023-07-25T01:24:52.377Z,16.25
2023-07-25T01:26:52.347Z,16.242
2023-07-25T01:28:52.353Z,16.25
2023-07-25T01:30:52.355Z,16.25
2023-07-25T01:32:52.361Z,16.242
2023-07-25T01:34:52.354Z,16.242
2023-07-25T01:36:52.362Z,16.227
2023-07-25T01:38:52.363Z,16.219
2023-07-25T01:40:52.387Z,16.219
2023-07-25T01:42:52.365Z,16.219
2023-07-25T01:44:52.366Z,16.219
2023-07-25T01:46:52.384Z,16.227
2023-07-25T01:48:52.375Z,16.242
2023-07-25T01:50:52.385Z,16.25
2023-07-25T01:52:52.370Z,16.273
2023-07-25T01:54:52.381Z,16.289
2023-07-25T01:56:52.412Z,16.312
2023-07-25T01:58:52.374Z,16.312
2023-07-25T02:00:52.412Z,16.352
2023-07-25T02:02:52.412Z,16.367
2023-07-25T02:04:52.394Z,16.391
2023-07-25T02:06:52.384Z,16.391
2023-07-25T02:08:52.392Z,16.414
2023-07-25T02:10:52.401Z,16.437
2023-07-25T02:12:52.420Z,16.437
2023-07-25T02:14:52.404Z,16.453
2023-07-25T02:16:52.430Z,16.453
2023-07-25T02:18:52.415Z,16.461
2023-07-25T02:20:52.401Z,16.477
2023-07-25T02:22:52.407Z,16.484
2023-07-25T02:24:52.445Z,16.5
2023-07-25T02:26:52.413Z,16.5
2023-07-25T02:28:52.443Z,16.508
2023-07-25T02:30:52.425Z,16.508
2023-07-25T02:32:52.431Z,16.5
2023-07-25T02:34:52.414Z,16.484
2023-07-25T02:36:52.421Z,16.477
2023-07-25T02:38:52.420Z,16.453
2023-07-25T02:40:52.421Z,16.453
2023-07-25T02:42:52.438Z,16.422
2023-07-25T02:44:52.454Z,16.414
2023-07-25T02:46:52.463Z,16.422
2023-07-25T02:48:52.434Z,16.414
2023-07-25T02:50:52.431Z,16.414
2023-07-25T02:52:52.433Z,16.422
2023-07-25T02:54:52.436Z,16.422
2023-07-25T02:56:52.443Z,16.422
2023-07-25T02:58:52.440Z,16.422
2023-07-25T03:00:52.481Z,16.422
2023-07-25T03:02:52.479Z,16.437
2023-07-25T03:04:52.449Z,16.422
2023-07-25T03:06:52.451Z,16.422
2023-07-25T03:08:52.447Z,16.422
2023-07-25T03:10:52.454Z,16.437
2023-07-25T03:12:52.463Z,16.422
2023-07-25T03:14:52.476Z,16.414
2023-07-25T03:16:52.495Z,16.414
2023-07-25T03:18:52.457Z,16.398
2023-07-25T03:20:52.459Z,16.398
2023-07-25T03:22:52.480Z,16.398
2023-07-25T03:24:52.537Z,16.398
2023-07-25T03:26:52.466Z,16.414
2023-07-25T03:28:52.552Z,16.398
2023-07-25T03:30:52.513Z,16.414
2023-07-25T03:32:52.516Z,16.414
2023-07-25T03:34:52.477Z,16.414
2023-07-25T03:36:52.469Z,16.422
2023-07-25T03:38:52.481Z,16.422
2023-07-25T03:40:52.480Z,16.437
2023-07-25T03:42:52.484Z,16.437
2023-07-25T03:44:52.486Z,16.437
2023-07-25T03:46:52.478Z,16.437
2023-07-25T03:48:52.513Z,16.437
2023-07-25T03:50:52.491Z,16.422
2023-07-25T03:52:52.496Z,16.422
2023-07-25T03:54:52.488Z,16.422
2023-07-25T03:56:52.502Z,16.414
2023-07-25T03:58:52.499Z,16.414
2023-07-25T04:00:52.492Z,16.398
2023-07-25T04:03:01.099Z,16.398
2023-07-25T04:04:52.634Z,16.414
2023-07-25T04:06:52.507Z,16.375
2023-07-25T04:08:52.516Z,16.414
2023-07-25T04:10:52.516Z,16.422
2023-07-25T04:12:52.505Z,16.437
2023-07-25T04:14:52.507Z,16.437
2023-07-25T04:16:52.518Z,16.453
2023-07-25T04:18:52.524Z,16.453
2023-07-25T04:20:52.554Z,16.437
2023-07-25T04:22:52.519Z,16.437
2023-07-25T04:24:52.580Z,16.437
2023-07-25T04:26:52.532Z,16.422
2023-07-25T04:28:52.526Z,16.437
2023-07-25T04:30:52.531Z,16.437
2023-07-25T04:32:52.548Z,16.461
2023-07-25T04:34:52.563Z,16.477
2023-07-25T04:36:52.567Z,16.484
2023-07-25T04:38:52.548Z,16.5
2023-07-25T04:40:52.538Z,16.508
2023-07-25T04:42:52.549Z,16.523
2023-07-25T04:44:52.542Z,16.539
2023-07-25T04:46:52.548Z,16.562
2023-07-25T04:48:52.562Z,16.57
2023-07-25T04:50:52.550Z,16.648
2023-07-25T04:52:52.596Z,16.75
2023-07-25T04:54:52.553Z,16.836
2023-07-25T04:56:52.557Z,16.945
2023-07-25T04:58:52.562Z,17.031
2023-07-25T05:00:52.567Z,17.117
2023-07-25T05:02:52.603Z,17.203
2023-07-25T05:04:52.568Z,17.273
2023-07-25T05:06:52.578Z,17.352
2023-07-25T05:08:52.597Z,17.398
2023-07-25T05:10:52.600Z,17.461
2023-07-25T05:12:52.587Z,17.508
2023-07-25T05:14:52.575Z,17.57
2023-07-25T05:16:52.596Z,17.648
2023-07-25T05:18:52.579Z,17.711
2023-07-25T05:20:52.596Z,17.773
2023-07-25T05:22:52.583Z,17.82
2023-07-25T05:24:52.621Z,17.867
2023-07-25T05:26:52.588Z,17.93
2023-07-25T05:28:52.589Z,17.992
2023-07-25T05:30:52.598Z,18.055
2023-07-25T05:32:52.608Z,18.109
2023-07-25T05:34:52.613Z,18.172
2023-07-25T05:36:52.601Z,18.219
2023-07-25T05:38:52.601Z,18.258
2023-07-25T05:40:52.618Z,18.305
2023-07-25T05:42:52.600Z,18.328
2023-07-25T05:44:52.607Z,18.383
2023-07-25T05:46:52.608Z,18.414
2023-07-25T05:48:52.612Z,18.453
2023-07-25T05:50:52.623Z,18.492
2023-07-25T05:52:52.618Z,18.539
2023-07-25T05:54:52.621Z,18.586
2023-07-25T05:56:52.635Z,18.625
2023-07-25T05:58:52.612Z,18.633
2023-07-25T06:00:52.639Z,18.633
2023-07-25T06:02:52.656Z,18.625
2023-07-25T06:04:52.622Z,18.625
2023-07-25T06:06:52.637Z,18.625
2023-07-25T06:08:52.624Z,18.625
2023-07-25T06:10:52.648Z,18.625
2023-07-25T06:12:52.653Z,18.648
2023-07-25T06:14:52.642Z,18.687
2023-07-25T06:16:52.676Z,18.719
2023-07-25T06:18:52.635Z,18.758
2023-07-25T06:20:52.942Z,18.797
2023-07-25T06:22:52.652Z,18.828
2023-07-25T06:24:52.677Z,18.883
2023-07-25T06:26:52.678Z,18.93
2023-07-25T06:28:52.686Z,18.969
2023-07-25T06:30:52.713Z,18.977
2023-07-25T06:32:55.123Z,18.992
2023-07-25T06:34:52.672Z,18.977
2023-07-25T06:36:52.656Z,18.969
2023-07-25T06:38:52.677Z,18.953
2023-07-25T06:40:52.664Z,18.93
2023-07-25T06:42:52.663Z,18.906
2023-07-25T06:44:52.696Z,18.883
2023-07-25T06:46:52.679Z,18.867
2023-07-25T06:48:52.675Z,18.867
2023-07-25T06:50:52.676Z,18.867
2023-07-25T06:52:52.747Z,18.891
2023-07-25T06:54:52.684Z,18.914
2023-07-25T06:56:52.680Z,18.953
2023-07-25T06:58:52.684Z,19.016
2023-07-25T07:00:52.756Z,19.102
2023-07-25T07:02:52.815Z,19.195
2023-07-25T07:04:52.689Z,19.297
2023-07-25T07:06:52.687Z,19.367
2023-07-25T07:08:52.693Z,19.43
2023-07-25T07:10:52.692Z,19.5
2023-07-25T07:12:52.708Z,19.562
2023-07-25T07:14:52.704Z,19.648
2023-07-25T07:16:52.775Z,19.75
2023-07-25T07:18:52.729Z,19.891
2023-07-25T07:20:52.709Z,20.039
2023-07-25T07:22:52.722Z,20.195
2023-07-25T07:24:52.764Z,20.305
2023-07-25T07:26:52.723Z,20.406
2023-07-25T07:28:52.722Z,20.477
2023-07-25T07:30:52.763Z,20.539
2023-07-25T07:32:52.802Z,20.602
2023-07-25T07:34:52.721Z,20.633
2023-07-25T07:36:52.717Z,20.695
2023-07-25T07:38:52.728Z,20.75
2023-07-25T07:40:52.733Z,20.773
2023-07-25T07:42:52.731Z,20.781
2023-07-25T07:44:52.743Z,20.797
2023-07-25T07:46:52.738Z,20.805
2023-07-25T07:48:52.755Z,20.82
2023-07-25T07:50:52.737Z,20.781
2023-07-25T07:52:52.736Z,20.734
2023-07-25T07:54:52.744Z,20.695
2023-07-25T07:56:52.741Z,20.664
2023-07-25T07:58:52.748Z,20.664
2023-07-25T08:00:52.749Z,20.664
2023-07-25T08:02:52.776Z,20.672
2023-07-25T08:04:52.819Z,20.719
2023-07-25T08:06:52.755Z,20.773
2023-07-25T08:08:52.773Z,20.852
2023-07-25T08:10:52.757Z,20.937
2023-07-25T08:12:52.771Z,21.047
2023-07-25T08:14:52.760Z,21.156
2023-07-25T08:16:52.773Z,21.227
2023-07-25T08:18:52.775Z,21.289
2023-07-25T08:20:52.801Z,21.375
2023-07-25T08:22:52.777Z,21.422
2023-07-25T08:24:52.797Z,21.484
2023-07-25T08:26:52.791Z,21.539
2023-07-25T08:28:52.779Z,21.586
2023-07-25T08:30:52.780Z,21.625
2023-07-25T08:32:52.822Z,21.672
2023-07-25T08:34:52.782Z,21.719
2023-07-25T08:36:52.841Z,21.773
2023-07-25T08:38:52.793Z,21.828
2023-07-25T08:40:52.805Z,21.867
2023-07-25T08:42:52.809Z,21.906
2023-07-25T08:44:52.810Z,21.961
2023-07-25T08:46:52.806Z,22.047
2023-07-25T08:48:52.805Z,22.164
2023-07-25T08:50:52.820Z,22.289
2023-07-25T08:52:52.865Z,22.383
2023-07-25T08:54:52.815Z,22.469
2023-07-25T08:56:52.816Z,22.531
2023-07-25T08:58:52.823Z,22.562
2023-07-25T09:00:52.827Z,22.625
2023-07-25T09:02:53.664Z,22.687
2023-07-25T09:04:52.869Z,22.75
2023-07-25T09:06:52.840Z,22.82
2023-07-25T09:08:52.861Z,22.875
2023-07-25T09:10:52.831Z,22.93
2023-07-25T09:12:52.836Z,22.961
2023-07-25T09:14:52.831Z,22.961
2023-07-25T09:16:52.835Z,22.938
2023-07-25T09:18:52.859Z,22.914
2023-07-25T09:20:52.852Z,22.938
2023-07-25T09:22:52.856Z,22.93
2023-07-25T09:24:52.940Z,22.938
2023-07-25T09:26:52.847Z,23.039
2023-07-25T09:28:52.856Z,23.117
2023-07-25T09:30:52.925Z,23.18
2023-07-25T09:32:52.901Z,23.289
2023-07-25T09:34:52.868Z,23.375
2023-07-25T09:36:52.869Z,23.359
2023-07-25T09:38:52.861Z,23.422
2023-07-25T09:40:52.969Z,23.445
2023-07-25T09:42:52.871Z,23.445
2023-07-25T09:44:52.865Z,23.492
2023-07-25T09:46:52.874Z,23.563
2023-07-25T09:48:52.977Z,23.602
2023-07-25T09:50:52.882Z,23.641
2023-07-25T09:52:52.872Z,23.664
2023-07-25T09:54:52.877Z,23.687
2023-07-25T09:56:52.905Z,23.711
2023-07-25T09:59:06.243Z,23.734
2023-07-25T10:00:52.889Z,23.773
2023-07-25T10:02:52.989Z,23.828
2023-07-25T10:04:52.906Z,23.898
2023-07-25T10:06:52.895Z,23.984
2023-07-25T10:08:52.889Z,24.078
2023-07-25T10:10:52.905Z,24.148
2023-07-25T10:12:52.927Z,24.273
2023-07-25T10:14:52.916Z,24.398
2023-07-25T10:16:52.901Z,24.531
2023-07-25T10:18:52.933Z,24.664
2023-07-25T10:20:52.916Z,24.758
2023-07-25T10:22:52.920Z,24.867
2023-07-25T10:24:52.924Z,24.922
2023-07-25T10:26:52.914Z,24.969
2023-07-25T10:28:52.947Z,24.969
2023-07-25T10:30:52.916Z,25.008
2023-07-25T10:32:53.000Z,25.031
2023-07-25T10:34:52.938Z,25.094
2023-07-25T10:36:52.932Z,25.195
2023-07-25T10:38:52.927Z,25.352
2023-07-25T10:40:52.936Z,25.508
2023-07-25T10:44:53.023Z,25.695
2023-07-25T10:46:52.959Z,25.844
2023-07-25T10:48:52.955Z,25.961
2023-07-25T10:50:52.960Z,26.055
2023-07-25T10:52:52.947Z,26.156
2023-07-25T10:54:52.951Z,26.25
2023-07-25T10:56:52.961Z,26.297
2023-07-25T10:58:52.957Z,26.289
2023-07-25T11:00:52.999Z,26.227
2023-07-25T11:02:52.976Z,26.156
2023-07-25T11:04:52.966Z,26.063
2023-07-25T11:06:52.962Z,25.984
2023-07-25T11:08:52.972Z,25.891
2023-07-25T11:10:52.982Z,25.805
2023-07-25T11:12:52.978Z,25.734
2023-07-25T11:14:52.994Z,25.672
2023-07-25T11:16:53.034Z,25.641
2023-07-25T11:18:53.009Z,25.602
2023-07-25T11:20:53.086Z,25.555
2023-07-25T11:22:52.983Z,25.484
2023-07-25T11:24:53.132Z,25.414
2023-07-25T11:26:52.988Z,25.344
2023-07-25T11:28:53.001Z,25.273
2023-07-25T11:30:52.996Z,25.219
2023-07-25T11:32:53.045Z,25.187
2023-07-25T11:34:53.005Z,25.172
2023-07-25T11:36:53.001Z,25.187
2023-07-25T11:38:53.012Z,25.219
2023-07-25T11:40:53.017Z,25.281
2023-07-25T11:42:53.018Z,25.391
2023-07-25T11:44:53.010Z,25.523
2023-07-25T11:46:53.017Z,25.625
2023-07-25T11:48:53.037Z,25.758
2023-07-25T11:50:53.037Z,25.844
2023-07-25T11:52:53.030Z,25.891
2023-07-25T11:54:53.025Z,25.914
2023-07-25T11:56:53.032Z,25.914
2023-07-25T11:58:53.041Z,25.891
2023-07-25T12:00:53.039Z,25.828
2023-07-25T12:02:53.053Z,25.734
2023-07-25T12:04:53.058Z,25.75
2023-07-25T12:06:53.048Z,25.672
2023-07-25T12:08:53.041Z,25.687
2023-07-25T12:10:53.078Z,25.641
2023-07-25T12:12:53.047Z,25.617
2023-07-25T12:14:53.053Z,25.594
2023-07-25T12:16:53.077Z,25.578
2023-07-25T12:18:53.056Z,25.555
2023-07-25T12:20:58.412Z,25.547
2023-07-25T12:22:53.058Z,25.555
2023-07-25T12:24:53.090Z,25.547
2023-07-25T12:26:53.093Z,25.523
2023-07-25T12:28:53.066Z,25.469
2023-07-25T12:30:53.091Z,25.398
2023-07-25T12:32:53.131Z,25.328
2023-07-25T12:34:53.075Z,25.234
2023-07-25T12:36:53.107Z,25.148
2023-07-25T12:38:53.093Z,25.055
2023-07-25T12:40:53.076Z,24.984
2023-07-25T12:42:53.087Z,24.914
2023-07-25T12:44:53.081Z,24.867
2023-07-25T12:46:53.085Z,24.828
2023-07-25T12:48:53.093Z,24.828
2023-07-25T12:50:53.085Z,24.844
2023-07-25T12:52:53.124Z,24.867
2023-07-25T12:54:53.097Z,24.898
2023-07-25T12:56:53.097Z,24.961
2023-07-25T12:58:53.099Z,25.055
2023-07-25T13:00:53.100Z,25.164
2023-07-25T13:02:53.154Z,25.297
2023-07-25T13:04:53.104Z,25.445
2023-07-25T13:06:53.129Z,25.57
2023-07-25T13:08:53.143Z,25.664
2023-07-25T13:10:53.115Z,25.711
2023-07-25T13:12:53.120Z,25.734
2023-07-25T13:14:53.135Z,25.75
2023-07-25T13:16:53.129Z,25.773
2023-07-25T13:18:53.125Z,25.82
2023-07-25T13:20:53.135Z,25.867
2023-07-25T13:22:53.129Z,25.914
2023-07-25T13:24:53.188Z,25.961
2023-07-25T13:26:53.134Z,26.016
2023-07-25T13:28:53.152Z,26.063
2023-07-25T13:30:53.149Z,26.086
2023-07-25T13:32:53.212Z,26.102
2023-07-25T13:34:53.150Z,26.102
2023-07-25T13:36:53.162Z,26.102
2023-07-25T13:38:53.147Z,26.109
2023-07-25T13:40:53.175Z,26.133
2023-07-25T13:42:53.153Z,26.148
2023-07-25T13:44:53.175Z,26.156
2023-07-25T13:46:53.167Z,26.156
2023-07-25T13:48:53.401Z,26.133
2023-07-25T13:50:54.788Z,26.102
2023-07-25T13:52:53.163Z,26.086
2023-07-25T13:54:53.165Z,26.078
2023-07-25T13:56:53.183Z,26.102
2023-07-25T13:58:53.171Z,26.133
2023-07-25T14:00:53.167Z,26.18
2023-07-25T14:02:53.178Z,26.242
2023-07-25T14:04:53.239Z,26.297
2023-07-25T14:06:53.169Z,26.367
2023-07-25T14:08:54.583Z,26.437
2023-07-25T14:10:53.173Z,26.477
2023-07-25T14:12:53.213Z,26.477
2023-07-25T14:14:54.671Z,26.453
2023-07-25T14:16:53.185Z,26.406
2023-07-25T14:18:53.190Z,26.367
2023-07-25T14:20:54.350Z,26.367
2023-07-25T14:22:53.199Z,26.414
2023-07-25T14:24:53.288Z,26.477
2023-07-25T14:26:53.205Z,26.555
2023-07-25T14:28:53.234Z,26.664
2023-07-25T14:30:53.206Z,26.797
2023-07-25T14:32:53.240Z,26.945
2023-07-25T14:34:53.232Z,27.078
2023-07-25T14:36:53.224Z,27.227
2023-07-25T14:38:53.240Z,27.367
2023-07-25T14:40:53.446Z,27.5
2023-07-25T14:42:53.248Z,27.57
2023-07-25T14:44:53.248Z,27.602
2023-07-25T14:46:53.284Z,27.617
2023-07-25T14:48:53.223Z,27.602
2023-07-25T14:50:53.247Z,27.602
2023-07-25T14:52:53.232Z,27.648
2023-07-25T14:54:53.242Z,27.75
2023-07-25T14:56:53.238Z,27.898
2023-07-25T14:58:53.249Z,28.172
2023-07-25T15:00:53.298Z,28.555
2023-07-25T15:02:53.332Z,29
2023-07-25T15:04:53.258Z,29.453
2023-07-25T15:06:53.257Z,29.922
2023-07-25T15:08:53.273Z,30.422
2023-07-25T15:10:53.256Z,30.945
2023-07-25T15:12:53.273Z,31.398
2023-07-25T15:14:53.262Z,31.789
2023-07-25T15:16:53.306Z,32.148
2023-07-25T15:18:53.281Z,32.484
2023-07-25T15:20:53.269Z,32.766
2023-07-25T15:22:53.273Z,33.055
2023-07-25T15:24:53.351Z,33.336
2023-07-25T15:26:53.311Z,33.57
2023-07-25T15:28:53.291Z,33.75
2023-07-25T15:30:55.305Z,33.859
2023-07-25T15:32:53.374Z,33.828
2023-07-25T15:34:53.294Z,33.688
2023-07-25T15:36:53.304Z,33.547
2023-07-25T15:38:53.298Z,33.438
2023-07-25T15:40:53.316Z,33.289
2023-07-25T15:42:53.313Z,33.125
2023-07-25T15:44:53.315Z,33.094
2023-07-25T15:46:53.318Z,33.047
2023-07-25T15:48:53.358Z,33.102
2023-07-25T15:50:53.332Z,33.117
2023-07-25T15:52:53.323Z,33.023
2023-07-25T15:54:53.324Z,32.813
2023-07-25T15:56:53.365Z,32.563
2023-07-25T15:58:53.324Z,32.273
2023-07-25T16:00:53.391Z,31.961
2023-07-25T16:02:53.350Z,31.656
2023-07-25T16:04:53.428Z,31.336
2023-07-25T16:06:53.337Z,31.023
2023-07-25T16:08:53.358Z,30.75
2023-07-25T16:10:53.410Z,30.477
2023-07-25T16:12:53.369Z,30.234
2023-07-25T16:14:53.361Z,30.016
2023-07-25T16:16:53.385Z,29.836
2023-07-25T16:18:53.351Z,29.758
2023-07-25T16:20:53.383Z,29.734
2023-07-25T16:22:53.347Z,29.68
2023-07-25T16:24:53.386Z,29.586
2023-07-25T16:26:53.364Z,29.469
2023-07-25T16:28:53.366Z,29.336
2023-07-25T16:30:58.991Z,29.188
2023-07-25T16:32:53.403Z,29.016
2023-07-25T16:34:53.364Z,28.852
2023-07-25T16:36:53.407Z,28.687
2023-07-25T16:38:53.384Z,28.508
2023-07-25T16:40:53.374Z,28.336
2023-07-25T16:42:53.386Z,28.172
2023-07-25T16:44:53.378Z,28.008
2023-07-25T16:46:53.380Z,27.844
2023-07-25T16:48:53.384Z,27.695
2023-07-25T16:50:53.396Z,27.555
2023-07-25T16:52:53.452Z,27.437
2023-07-25T16:54:53.389Z,27.367
2023-07-25T16:56:53.415Z,27.344
2023-07-25T16:58:53.409Z,27.383
2023-07-25T17:00:53.414Z,27.437
2023-07-25T17:02:53.458Z,27.477
2023-07-25T17:04:53.423Z,27.5
2023-07-25T17:06:53.457Z,27.508
2023-07-25T17:08:53.462Z,27.523
2023-07-25T17:10:53.450Z,27.523
2023-07-25T17:12:53.464Z,27.5
2023-07-25T17:14:53.431Z,27.453
2023-07-25T17:16:53.452Z,27.383
2023-07-25T17:18:53.438Z,27.297
2023-07-25T17:20:53.444Z,27.219
2023-07-25T17:22:53.433Z,27.133
2023-07-25T17:24:53.555Z,27.055
2023-07-25T17:26:53.542Z,26.992
2023-07-25T17:28:53.458Z,26.961
2023-07-25T17:30:53.468Z,26.922
2023-07-25T17:32:53.497Z,26.875
2023-07-25T17:34:53.551Z,26.828
2023-07-25T17:36:53.479Z,26.75
2023-07-25T17:38:53.510Z,26.648
2023-07-25T17:40:53.555Z,26.555
2023-07-25T17:42:53.474Z,26.461
2023-07-25T17:44:53.478Z,26.367
2023-07-25T17:46:53.484Z,26.25
2023-07-25T17:48:53.488Z,26.125
2023-07-25T17:50:53.489Z,26.039
2023-07-25T17:52:53.635Z,25.922
2023-07-25T17:54:53.478Z,25.828
2023-07-25T17:56:53.524Z,25.719
2023-07-25T17:58:53.484Z,25.594
2023-07-25T18:00:53.520Z,25.445
2023-07-25T18:02:53.581Z,25.305
2023-07-25T18:04:53.484Z,25.117
2023-07-25T18:06:53.507Z,24.922
2023-07-25T18:08:53.507Z,24.75
2023-07-25T18:10:53.510Z,24.508
2023-07-25T18:12:53.528Z,24.367
2023-07-25T18:14:53.524Z,24.211
2023-07-25T18:16:53.582Z,24.078
2023-07-25T18:18:53.557Z,23.937
2023-07-25T18:20:53.578Z,23.758
2023-07-25T18:22:53.518Z,23.555
2023-07-25T18:24:53.553Z,23.398
2023-07-25T18:26:53.507Z,23.219
2023-07-25T18:28:53.531Z,23.062
2023-07-25T18:30:53.560Z,22.906
2023-07-25T18:32:53.569Z,22.75
2023-07-25T18:34:53.536Z,22.664
2023-07-25T18:36:53.556Z,22.586
2023-07-25T18:38:53.546Z,22.516
2023-07-25T18:40:53.536Z,22.508
2023-07-25T18:42:53.546Z,22.453
2023-07-25T18:44:53.576Z,22.406
2023-07-25T18:46:53.555Z,22.352
2023-07-25T18:48:53.553Z,22.289
2023-07-25T18:50:53.583Z,22.227
2023-07-25T18:52:53.595Z,22.164
2023-07-25T18:54:53.551Z,22.094
2023-07-25T18:56:53.570Z,22.047
2023-07-25T18:58:53.579Z,22
2023-07-25T19:00:53.701Z,21.953
2023-07-25T19:02:53.630Z,21.914
2023-07-25T19:04:53.564Z,21.875
2023-07-25T19:06:53.589Z,21.844
2023-07-25T19:08:53.588Z,21.805
2023-07-25T19:10:53.557Z,21.781
2023-07-25T19:12:53.580Z,21.75
2023-07-25T19:14:53.566Z,21.734
2023-07-25T19:16:53.628Z,21.711
2023-07-25T19:18:53.569Z,21.672
2023-07-25T19:20:53.577Z,21.625
2023-07-25T19:22:53.583Z,21.578
2023-07-25T19:24:53.629Z,21.539
2023-07-25T19:26:53.605Z,21.492
2023-07-25T19:28:53.604Z,21.445
2023-07-25T19:30:53.645Z,21.406
2023-07-25T19:32:53.647Z,21.375
2023-07-25T19:34:53.586Z,21.336
2023-07-25T19:36:53.597Z,21.312
2023-07-25T19:38:53.590Z,21.227
2023-07-25T19:40:53.623Z,21.156
2023-07-25T19:42:53.597Z,21.047
2023-07-25T19:44:53.642Z,20.914
2023-07-25T19:46:53.673Z,20.867
2023-07-25T19:48:53.695Z,20.781
2023-07-25T19:50:53.613Z,20.719
2023-07-25T19:52:53.625Z,20.664
2023-07-25T19:54:53.618Z,20.586
2023-07-25T19:56:53.635Z,20.5
2023-07-25T19:58:53.629Z,20.469
2023-07-25T20:00:53.634Z,20.391
2023-07-25T20:02:53.708Z,20.344
2023-07-25T20:04:53.675Z,20.281
2023-07-25T20:06:53.625Z,20.234
2023-07-25T20:08:53.636Z,20.195
2023-07-25T20:10:53.637Z,20.148
2023-07-25T20:12:53.679Z,20.125
2023-07-25T20:14:53.638Z,20.078
2023-07-25T20:16:53.708Z,20.023
2023-07-25T20:18:53.673Z,20
2023-07-25T20:20:53.654Z,19.969
2023-07-25T20:22:53.647Z,19.93
2023-07-25T20:24:53.672Z,19.891
2023-07-25T20:26:53.642Z,19.867
2023-07-25T20:28:53.644Z,19.828
2023-07-25T20:30:53.640Z,19.797
2023-07-25T20:32:53.760Z,19.773
2023-07-25T20:34:53.673Z,19.734
2023-07-25T20:36:53.684Z,19.711
2023-07-25T20:38:53.670Z,19.687
2023-07-25T20:40:53.684Z,19.648
2023-07-25T20:42:53.659Z,19.602
2023-07-25T20:44:53.674Z,19.578
2023-07-25T20:46:53.744Z,19.539
2023-07-25T20:48:53.690Z,19.492
2023-07-25T20:50:53.677Z,19.469
2023-07-25T20:52:53.730Z,19.414
2023-07-25T20:54:53.672Z,19.367
2023-07-25T20:56:53.667Z,19.32
2023-07-25T20:58:53.669Z,19.273
2023-07-25T21:00:53.708Z,19.234
2023-07-25T21:02:53.786Z,19.195
2023-07-25T21:04:53.690Z,19.164
2023-07-25T21:06:53.714Z,19.125
2023-07-25T21:08:53.745Z,19.055
2023-07-25T21:10:53.687Z,19.039
2023-07-25T21:12:53.680Z,19
2023-07-25T21:14:53.690Z,18.953
2023-07-25T21:16:53.685Z,18.906
2023-07-25T21:18:53.716Z,18.867
2023-07-25T21:20:53.698Z,18.828
2023-07-25T21:22:53.701Z,18.797
2023-07-25T21:24:53.811Z,18.773
2023-07-25T21:26:53.728Z,18.75
2023-07-25T21:28:53.722Z,18.734
2023-07-25T21:30:53.703Z,18.711
2023-07-25T21:32:53.764Z,18.695
2023-07-25T21:34:53.728Z,18.672
2023-07-25T21:36:53.711Z,18.664
2023-07-25T21:38:55.590Z,18.555
2023-07-25T21:40:53.744Z,18.609
2023-07-25T21:42:53.733Z,18.602
2023-07-25T21:44:53.719Z,18.602
2023-07-25T21:46:53.752Z,18.578
2023-07-25T21:48:53.741Z,18.555
2023-07-25T21:50:53.738Z,18.539
2023-07-25T21:52:53.784Z,18.539
2023-07-25T21:54:53.740Z,18.523
2023-07-25T21:56:53.786Z,18.516
2023-07-25T21:58:53.769Z,18.5
2023-07-25T22:00:53.745Z,18.492
2023-07-25T22:02:53.772Z,18.477
2023-07-25T22:04:53.738Z,18.469
2023-07-25T22:06:53.754Z,18.437
2023-07-25T22:08:53.746Z,18.437
2023-07-25T22:10:53.764Z,18.414
2023-07-25T22:12:53.778Z,18.391
2023-07-25T22:14:53.756Z,18.367
2023-07-25T22:16:53.769Z,18.367
2023-07-25T22:18:53.754Z,18.359
2023-07-25T22:20:53.762Z,18.359
2023-07-25T22:22:53.765Z,18.344
2023-07-25T22:24:53.786Z,18.32
2023-07-25T22:26:53.766Z,18.328
2023-07-25T22:28:53.801Z,18.328
2023-07-25T22:30:53.770Z,18.32
2023-07-25T22:32:53.819Z,18.305
2023-07-25T22:34:53.806Z,18.297
2023-07-25T22:36:53.795Z,18.281
2023-07-25T22:38:53.811Z,18.258
2023-07-25T22:40:53.776Z,18.25
2023-07-25T22:42:53.807Z,18.25
2023-07-25T22:44:53.837Z,18.25
2023-07-25T22:46:53.840Z,18.234
2023-07-25T22:48:53.824Z,18.195
2023-07-25T22:50:53.790Z,18.172
2023-07-25T22:52:53.793Z,18.164
2023-07-25T22:54:53.801Z,18.125
2023-07-25T22:56:53.806Z,18.102
2023-07-25T22:58:53.796Z,18.078
2023-07-25T23:00:53.828Z,18.055
2023-07-25T23:02:53.849Z,18.023
2023-07-25T23:04:53.824Z,18
2023-07-25T23:06:53.815Z,17.977
2023-07-25T23:08:53.829Z,17.953
2023-07-25T23:10:53.820Z,17.937
2023-07-25T23:12:53.842Z,17.93
2023-07-25T23:14:53.823Z,17.906
2023-07-25T23:16:53.844Z,17.906
2023-07-25T23:18:53.811Z,17.883
2023-07-25T23:20:53.833Z,17.867
2023-07-25T23:22:53.817Z,17.859
2023-07-25T23:24:53.857Z,17.844
2023-07-25T23:26:53.818Z,17.82
2023-07-25T23:28:53.832Z,17.805
2023-07-25T23:30:53.879Z,17.75
2023-07-25T23:32:53.870Z,17.734
2023-07-25T23:34:53.839Z,17.758
2023-07-25T23:36:53.832Z,17.75
2023-07-25T23:38:53.854Z,17.719
2023-07-25T23:40:53.838Z,17.695
2023-07-25T23:42:53.838Z,17.687
2023-07-25T23:44:53.848Z,17.625
2023-07-25T23:46:53.861Z,17.656
2023-07-25T23:48:53.917Z,17.648
2023-07-25T23:50:53.848Z,17.633
2023-07-25T23:52:53.872Z,17.625
2023-07-25T23:54:53.862Z,17.602
2023-07-25T23:56:53.854Z,17.586
2023-07-25T23:58:53.880Z,17.562
